Time;durP1;ratioP1;P1;durP2;ratioP2;P2;SDS_P1;SDS_P2;PMS_P1;PMS_P2;Temp;Humidity;BMP_temperature;BMP_pressure;BME280_temperature;BME280_humidity;BME280_pressure;Samples;Min_cycle;Max_cycle;Signal;HPM_P1;HPM_P2
2023/03/26 00:01:39;;;;;;;2.90;0.90;;;;;;;9.86;100.00;95889.69;5014203;28;101993;-61
2023/03/26 00:04:07;;;;;;;1.60;0.80;;;;;;;9.84;100.00;95891.00;5022974;28;105635;-61
2023/03/26 00:06:37;;;;;;;2.23;0.70;;;;;;;9.84;100.00;95886.50;5021805;28;101885;-61
2023/03/26 00:09:06;;;;;;;1.47;0.80;;;;;;;9.85;100.00;95889.94;5014493;27;101807;-61
2023/03/26 00:11:34;;;;;;;2.07;0.87;;;;;;;9.84;100.00;95889.16;5016603;28;105690;-61
2023/03/26 00:14:02;;;;;;;2.80;0.80;;;;;;;9.78;100.00;95886.72;5009640;28;101926;-61
2023/03/26 00:16:31;;;;;;;4.60;0.90;;;;;;;9.65;100.00;95884.53;5011457;28;102862;-61
2023/03/26 00:19:00;;;;;;;1.83;0.80;;;;;;;9.62;100.00;95882.38;5009959;28;101875;-61
2023/03/26 00:21:29;;;;;;;1.33;0.70;;;;;;;9.62;100.00;95871.75;5009585;28;101836;-61
2023/03/26 00:23:59;;;;;;;2.03;0.80;;;;;;;9.61;100.00;95867.50;5013587;28;102619;-61
2023/03/26 00:26:28;;;;;;;2.03;0.80;;;;;;;9.61;100.00;95868.31;5022128;28;101733;-61
2023/03/26 00:28:55;;;;;;;2.27;1.03;;;;;;;9.58;100.00;95857.38;5014867;28;102646;-61
2023/03/26 00:31:22;;;;;;;1.40;0.77;;;;;;;9.61;100.00;95862.19;5028682;28;105582;-61
2023/03/26 00:33:53;;;;;;;4.57;1.00;;;;;;;9.61;100.00;95863.00;5031042;27;101852;-61
2023/03/26 00:36:20;;;;;;;0.87;0.70;;;;;;;9.63;100.00;95860.06;5028277;27;105379;-61
2023/03/26 00:38:48;;;;;;;3.60;0.93;;;;;;;9.75;100.00;95860.69;5028670;28;105405;-61
2023/03/26 00:41:21;;;;;;;1.60;0.83;;;;;;;9.76;100.00;95854.31;5029577;28;102205;-61
2023/03/26 00:43:49;;;;;;;1.27;1.00;;;;;;;9.84;100.00;95856.47;5015872;27;102301;-61
2023/03/26 00:46:17;;;;;;;1.33;1.20;;;;;;;9.89;100.00;95853.84;5012196;28;105747;-61
2023/03/26 00:48:45;;;;;;;1.80;0.77;;;;;;;10.00;100.00;95847.53;5010497;28;101850;-61
2023/03/26 00:51:14;;;;;;;2.63;0.93;;;;;;;9.95;100.00;95850.16;5008565;28;104713;-61
2023/03/26 00:53:41;;;;;;;1.60;0.80;;;;;;;9.90;100.00;95853.59;5010383;28;101802;-61
2023/03/26 00:56:09;;;;;;;3.43;0.90;;;;;;;9.91;100.00;95849.88;5008992;28;103798;-61
2023/03/26 00:58:38;;;;;;;2.13;1.00;;;;;;;9.88;100.00;95863.66;5010196;28;102964;-61
2023/03/26 01:01:08;;;;;;;1.93;1.20;;;;;;;9.89;100.00;95859.97;5010320;28;101814;-61
2023/03/26 01:03:38;;;;;;;1.43;0.77;;;;;;;9.90;100.00;95866.06;5018061;28;105161;-61
2023/03/26 01:06:07;;;;;;;1.23;0.80;;;;;;;10.01;100.00;95868.53;5024723;28;102597;-61
2023/03/26 01:08:38;;;;;;;2.73;0.90;;;;;;;9.98;100.00;95860.28;5032287;28;101939;-61
2023/03/26 01:11:12;;;;;;;1.50;0.70;;;;;;;9.92;100.00;95859.44;5014777;27;102893;-61
2023/03/26 01:13:47;;;;;;;2.57;0.97;;;;;;;9.98;100.00;95860.28;5010413;28;101812;-62
2023/03/26 01:16:21;;;;;;;1.17;1.00;;;;;;;9.98;100.00;95857.63;5009140;28;105154;-61
2023/03/26 01:18:48;;;;;;;1.50;0.77;;;;;;;10.02;100.00;95864.00;5009255;28;102925;-61
2023/03/26 01:21:21;;;;;;;1.40;0.93;;;;;;;9.97;100.00;95856.81;5010101;28;101778;-61
2023/03/26 01:23:58;;;;;;;3.87;0.97;;;;;;;9.92;100.00;95858.66;5010373;28;102847;-61
2023/03/26 01:26:51;;;;;;;2.23;0.90;;;;;;;9.89;100.00;95854.66;5008180;28;105877;-61
2023/03/26 01:29:25;;;;;;;2.83;0.77;;;;;;;9.89;100.00;95861.81;4986659;28;102287;-61
2023/03/26 01:32:00;;;;;;;2.23;1.10;;;;;;;9.84;100.00;95854.63;5022852;28;105593;-61
2023/03/26 01:34:36;;;;;;;1.43;0.80;;;;;;;9.59;100.00;95845.75;5022528;27;101954;-61
2023/03/26 01:37:13;;;;;;;1.73;0.70;;;;;;;9.44;100.00;95853.59;5010318;28;102314;-61
2023/03/26 01:39:52;;;;;;;2.77;1.07;;;;;;;9.54;100.00;95848.38;5009538;28;102469;-61
2023/03/26 01:42:26;;;;;;;2.33;0.90;;;;;;;9.61;100.00;95846.28;5010157;28;101945;-61
2023/03/26 01:44:58;;;;;;;2.03;0.93;;;;;;;9.71;100.00;95851.63;5019269;28;105517;-61
2023/03/26 01:47:26;;;;;;;2.73;0.97;;;;;;;9.69;100.00;95846.59;5015001;27;102620;-61
2023/03/26 01:49:53;;;;;;;2.97;0.83;;;;;;;9.64;100.00;95838.59;5012114;28;102266;-61
2023/03/26 01:52:24;;;;;;;1.77;1.03;;;;;;;9.71;100.00;95841.03;5029456;28;102527;-61
2023/03/26 01:54:56;;;;;;;2.07;0.90;;;;;;;9.64;100.00;95843.91;5031346;28;101918;-61
2023/03/26 01:57:34;;;;;;;1.00;0.80;;;;;;;9.61;100.00;95838.31;5033700;27;102931;-61
2023/03/26 02:00:17;;;;;;;2.43;0.80;;;;;;;9.62;100.00;95842.56;5018934;28;105691;-61
2023/03/26 02:02:59;;;;;;;4.40;0.97;;;;;;;9.54;100.00;95835.09;5011880;28;101799;-61
2023/03/26 02:05:32;;;;;;;3.00;0.80;;;;;;;9.48;100.00;95826.28;5011951;28;105346;-61
2023/03/26 02:08:08;;;;;;;2.93;0.90;;;;;;;9.49;100.00;95821.78;5016114;28;103091;-61
2023/03/26 02:10:41;;;;;;;1.87;0.80;;;;;;;9.45;100.00;95823.34;5032016;28;101836;-61
2023/03/26 02:13:08;;;;;;;4.17;1.00;;;;;;;9.37;100.00;95815.88;5030256;28;104044;-61
2023/03/26 02:15:35;;;;;;;2.70;1.10;;;;;;;9.34;100.00;95822.50;5034424;28;105422;-61
2023/03/26 02:18:02;;;;;;;2.83;1.00;;;;;;;9.32;100.00;95821.94;5031187;28;105325;-61
2023/03/26 02:20:30;;;;;;;3.93;0.93;;;;;;;9.33;100.00;95817.44;5032001;27;102632;-61
2023/03/26 02:22:57;;;;;;;4.07;1.40;;;;;;;9.26;100.00;95820.31;5030141;28;102130;-61
2023/03/26 02:25:24;;;;;;;3.73;1.10;;;;;;;9.29;100.00;95827.78;5031469;28;105003;-61
2023/03/26 02:27:53;;;;;;;4.77;1.43;;;;;;;9.27;100.00;95829.09;5029147;28;105868;-61
2023/03/26 02:30:24;;;;;;;4.37;1.00;;;;;;;9.25;100.00;95826.69;5032951;27;101858;-61
2023/03/26 02:32:52;;;;;;;2.60;1.10;;;;;;;9.25;100.00;95828.53;5018497;28;104426;-61
2023/03/26 02:35:22;;;;;;;3.50;1.40;;;;;;;9.19;100.00;95822.41;5010800;28;104380;-61
2023/03/26 02:37:52;;;;;;;1.30;0.93;;;;;;;9.20;100.00;95823.19;5015881;28;102024;-61
2023/03/26 02:40:21;;;;;;;1.53;0.90;;;;;;;9.11;100.00;95817.53;5010415;28;104519;-61
2023/03/26 02:42:50;;;;;;;0.80;0.80;;;;;;;9.11;100.00;95819.41;5012388;28;101951;-61
2023/03/26 02:45:18;;;;;;;3.20;1.00;;;;;;;9.03;100.00;95814.56;5011273;28;105311;-61
2023/03/26 02:48:04;;;;;;;1.50;0.70;;;;;;;8.97;100.00;95807.63;5011551;28;102308;-61
2023/03/26 02:50:53;;;;;;;1.20;0.80;;;;;;;8.96;100.00;95809.50;5011905;28;101918;-61
2023/03/26 02:53:38;;;;;;;2.03;1.03;;;;;;;8.88;100.00;95807.31;5011092;28;104097;-61
2023/03/26 02:56:28;;;;;;;1.63;0.90;;;;;;;8.88;100.00;95811.81;4972495;28;102359;-61
2023/03/26 02:59:11;;;;;;;5.57;0.90;;;;;;;8.88;100.00;95809.19;5010504;28;102012;-61
2023/03/26 03:01:42;;;;;;;3.73;1.30;;;;;;;8.86;100.00;95805.97;5013848;28;104485;-61
2023/03/26 03:04:10;;;;;;;2.77;0.90;;;;;;;8.87;100.00;95797.75;5010983;28;102990;-61
2023/03/26 03:06:39;;;;;;;2.33;0.80;;;;;;;8.86;100.00;95795.34;5010790;28;105695;-61
2023/03/26 03:09:08;;;;;;;2.60;0.90;;;;;;;8.86;100.00;95792.69;5010432;28;105137;-61
2023/03/26 03:11:35;;;;;;;4.00;1.20;;;;;;;8.85;100.00;95788.47;5012045;28;101816;-61
2023/03/26 03:14:03;;;;;;;3.30;1.23;;;;;;;8.81;100.00;95782.88;5012975;28;104914;-61
2023/03/26 03:16:32;;;;;;;3.60;1.00;;;;;;;8.82;100.00;95781.00;5023812;28;104810;-61
2023/03/26 03:19:07;;;;;;;5.50;1.17;;;;;;;8.77;100.00;95775.69;5010282;28;101950;-61
2023/03/26 03:21:39;;;;;;;2.30;0.90;;;;;;;8.78;100.00;95774.63;5011604;28;104541;-61
2023/03/26 03:24:07;;;;;;;2.13;0.90;;;;;;;8.76;100.00;95776.72;5013478;28;105620;-61
2023/03/26 03:26:37;;;;;;;3.10;1.10;;;;;;;8.74;100.00;95771.69;5010823;28;104814;-61
2023/03/26 03:29:31;;;;;;;3.77;1.30;;;;;;;8.73;100.00;95764.75;5009912;28;105430;-61
2023/03/26 03:32:09;;;;;;;2.93;1.07;;;;;;;8.72;100.00;95759.75;5010591;28;102003;-61
2023/03/26 03:34:50;;;;;;;5.67;1.10;;;;;;;8.72;100.00;95757.88;5026781;28;105497;-61
2023/03/26 03:37:19;;;;;;;2.80;1.00;;;;;;;8.69;100.00;95753.09;5013076;28;105486;-61
2023/03/26 03:39:51;;;;;;;3.87;1.03;;;;;;;8.72;100.00;95751.78;5010374;28;101889;-61
2023/03/26 03:42:21;;;;;;;2.57;0.80;;;;;;;8.70;100.00;95751.22;5010424;28;104896;-61
2023/03/26 03:44:50;;;;;;;3.13;1.20;;;;;;;8.69;100.00;95746.97;5014259;28;104161;-61
2023/03/26 03:47:37;;;;;;;2.57;0.90;;;;;;;8.68;100.00;95745.38;4999644;28;102233;-61
2023/03/26 03:50:09;;;;;;;3.10;1.17;;;;;;;8.66;100.00;95735.03;5009561;28;105713;-61
2023/03/26 03:52:39;;;;;;;3.57;1.10;;;;;;;8.73;100.00;95740.13;5010192;28;102057;-61
2023/03/26 03:55:06;;;;;;;4.70;1.00;;;;;;;8.74;100.00;95747.03;5011151;28;104763;-61
2023/03/26 03:57:45;;;;;;;2.23;0.90;;;;;;;8.73;100.00;95737.47;5009546;28;103996;-61
2023/03/26 04:00:18;;;;;;;3.53;1.17;;;;;;;8.73;100.00;95742.78;4995497;28;101800;-61
2023/03/26 04:03:08;;;;;;;2.47;0.93;;;;;;;8.72;100.00;95741.19;5018459;28;105018;-61
2023/03/26 04:05:37;;;;;;;2.07;1.03;;;;;;;8.72;100.00;95746.50;5031074;27;102688;-61
2023/03/26 04:08:04;;;;;;;3.37;1.10;;;;;;;8.66;100.00;95743.00;5023302;28;101844;-61
2023/03/26 04:10:57;;;;;;;4.10;1.20;;;;;;;8.60;100.00;95737.88;5006356;28;102907;-61
2023/03/26 04:13:43;;;;;;;4.50;1.10;;;;;;;8.54;100.00;95738.91;5022646;28;101787;-62
2023/03/26 04:16:22;;;;;;;2.43;1.10;;;;;;;8.51;100.00;95734.13;5030159;28;103866;-61
2023/03/26 04:18:49;;;;;;;3.37;1.03;;;;;;;8.44;100.00;95738.81;5027152;28;105666;-62
2023/03/26 04:21:18;;;;;;;1.77;1.07;;;;;;;8.42;100.00;95732.97;5027505;28;102082;-61
2023/03/26 04:23:46;;;;;;;2.00;0.90;;;;;;;8.36;100.00;95734.00;5010931;28;102310;-61
2023/03/26 04:26:29;;;;;;;2.27;0.87;;;;;;;8.28;100.00;95745.06;5017324;28;104074;-61
2023/03/26 04:29:26;;;;;;;2.03;1.00;;;;;;;8.20;100.00;95733.06;5029429;27;102020;-61
2023/03/26 04:31:57;;;;;;;2.40;0.90;;;;;;;8.18;100.00;95739.63;5026410;28;104670;-61
2023/03/26 04:34:26;;;;;;;2.70;1.13;;;;;;;8.12;100.00;95738.00;5022428;28;101823;-61
2023/03/26 04:37:20;;;;;;;5.90;1.23;;;;;;;8.03;100.00;95734.19;5009711;28;105509;-61
2023/03/26 04:39:59;;;;;;;2.07;0.90;;;;;;;7.96;100.00;95725.66;5011193;28;102899;-61
2023/03/26 04:42:45;;;;;;;1.77;1.00;;;;;;;7.88;100.00;95734.03;5029011;28;102199;-61
2023/03/26 04:45:21;;;;;;;4.73;1.13;;;;;;;7.84;100.00;95740.84;5063279;27;103612;-61
2023/03/26 04:47:54;;;;;;;3.47;1.20;;;;;;;7.82;100.00;95732.38;5027034;28;105013;-61
2023/03/26 04:50:21;;;;;;;3.53;0.97;;;;;;;7.82;100.00;95727.91;5009171;28;101940;-61
2023/03/26 04:52:50;;;;;;;1.80;0.83;;;;;;;7.77;100.00;95711.16;5009313;28;105735;-62
2023/03/26 04:55:41;;;;;;;3.17;1.00;;;;;;;7.69;100.00;95711.59;5023533;28;102292;-62
2023/03/26 04:58:17;;;;;;;4.43;1.53;;;;;;;7.75;100.00;95707.97;5010771;28;102882;-62
2023/03/26 05:00:56;;;;;;;2.97;0.93;;;;;;;7.70;100.00;95710.56;5008351;28;105492;-61
2023/03/26 05:03:24;;;;;;;3.03;1.17;;;;;;;7.74;100.00;95716.97;5015995;28;101932;-61
2023/03/26 05:05:51;;;;;;;4.47;1.27;;;;;;;7.63;100.00;95716.03;5011326;28;104841;-61
2023/03/26 05:08:20;;;;;;;2.73;1.00;;;;;;;7.62;100.00;95714.44;5008691;28;104693;-61
2023/03/26 05:10:47;;;;;;;3.87;1.97;;;;;;;7.64;100.00;95706.25;5025191;28;101969;-61
2023/03/26 05:13:21;;;;;;;2.50;1.20;;;;;;;7.61;100.00;95698.81;5009046;28;104861;-61
2023/03/26 05:15:51;;;;;;;3.57;1.00;;;;;;;7.64;100.00;95700.97;5008445;28;105289;-61
2023/03/26 05:18:31;;;;;;;1.53;1.10;;;;;;;7.66;100.00;95704.16;5021670;28;101906;-62
2023/03/26 05:20:59;;;;;;;2.00;0.97;;;;;;;7.69;100.00;95701.81;5028300;28;105898;-61
2023/03/26 05:23:32;;;;;;;1.07;0.80;;;;;;;7.76;100.00;95694.50;5027970;28;102233;-61
2023/03/26 05:26:11;;;;;;;4.20;1.10;;;;;;;7.79;100.00;95687.91;5028433;28;105400;-61
2023/03/26 05:28:38;;;;;;;2.10;0.90;;;;;;;7.82;100.00;95679.44;5027995;28;105937;-61
2023/03/26 05:31:31;;;;;;;2.43;1.00;;;;;;;7.77;100.00;95679.38;5028727;28;102958;-61
2023/03/26 05:34:00;;;;;;;3.77;1.07;;;;;;;7.79;100.00;95669.38;5013837;28;105003;-62
2023/03/26 05:36:28;;;;;;;4.13;1.20;;;;;;;7.82;100.00;95660.91;5007712;28;105201;-61
2023/03/26 05:39:08;;;;;;;1.73;1.00;;;;;;;7.88;100.00;95651.97;5008626;28;101926;-61
2023/03/26 05:42:10;;;;;;;2.43;0.93;;;;;;;7.88;100.00;95642.19;5012857;28;103457;-61
2023/03/26 05:44:57;;;;;;;2.83;1.20;;;;;;;7.88;100.00;95631.59;5008657;28;101887;-61
2023/03/26 05:47:27;;;;;;;3.27;1.10;;;;;;;7.93;100.00;95634.31;5008770;28;104485;-61
2023/03/26 05:49:55;;;;;;;5.57;1.40;;;;;;;7.98;100.00;95628.25;5007713;28;105427;-61
2023/03/26 05:52:21;;;;;;;7.40;2.63;;;;;;;7.99;100.00;95630.66;5008432;28;101854;-61
2023/03/26 05:55:10;;;;;;;4.00;2.50;;;;;;;7.96;100.00;95631.13;5006982;28;102164;-61
2023/03/26 05:58:09;;;;;;;6.50;2.67;;;;;;;7.99;100.00;95620.06;4965870;28;103491;-62
2023/03/26 06:00:58;;;;;;;3.57;1.80;;;;;;;8.02;100.00;95616.09;4987266;28;101927;-61
2023/03/26 06:03:46;;;;;;;2.30;1.43;;;;;;;8.10;100.00;95612.97;5024752;28;103684;-62
2023/03/26 06:06:19;;;;;;;1.70;1.10;;;;;;;8.13;100.00;95609.84;5031879;27;103304;-61
2023/03/26 06:08:54;;;;;;;1.83;1.20;;;;;;;8.16;100.00;95599.53;5028978;28;104325;-62
2023/03/26 06:11:22;;;;;;;1.80;1.07;;;;;;;8.12;100.00;95597.66;5028029;28;105182;-62
2023/03/26 06:13:53;;;;;;;2.23;1.40;;;;;;;8.09;100.00;95600.78;5028560;28;101803;-61
2023/03/26 06:16:20;;;;;;;2.27;1.17;;;;;;;8.17;100.00;95595.81;5008700;28;104917;-61
2023/03/26 06:19:07;;;;;;;3.00;1.60;;;;;;;8.10;100.00;95595.25;5007452;28;105007;-61
2023/03/26 06:21:56;;;;;;;4.40;1.80;;;;;;;8.02;100.00;95608.94;5007223;28;101909;-62
2023/03/26 06:24:35;;;;;;;3.00;1.77;;;;;;;7.94;100.00;95616.56;5010990;28;105085;-62
2023/03/26 06:27:26;;;;;;;2.87;1.03;;;;;;;7.84;100.00;95616.47;5030010;28;106024;-61
2023/03/26 06:30:22;;;;;;;2.43;1.00;;;;;;;7.75;100.00;95618.00;5002467;28;102271;-62
2023/03/26 06:33:07;;;;;;;3.63;1.10;;;;;;;7.73;100.00;95626.16;5018502;27;105834;-61
2023/03/26 06:35:43;;;;;;;2.93;1.30;;;;;;;7.52;100.00;95634.19;5022528;28;102470;-61
2023/03/26 06:38:10;;;;;;;3.00;1.10;;;;;;;7.63;100.00;95636.66;5011591;28;104955;-61
2023/03/26 06:40:37;;;;;;;1.43;1.00;;;;;;;7.58;100.00;95630.53;5014876;28;105453;-61
2023/03/26 06:43:23;;;;;;;2.30;1.00;;;;;;;7.63;100.00;95627.94;5029369;28;101804;-61
2023/03/26 06:46:13;;;;;;;3.50;1.53;;;;;;;7.54;100.00;95616.19;5019447;27;101853;-61
2023/03/26 06:48:58;;;;;;;2.43;1.07;;;;;;;7.56;100.00;95614.09;5029260;28;102228;-61
2023/03/26 06:51:28;;;;;;;1.67;1.20;;;;;;;7.53;100.00;95598.72;5029755;27;101840;-61
2023/03/26 06:54:13;;;;;;;3.87;1.33;;;;;;;7.72;100.00;95602.59;5028520;28;102257;-61
2023/03/26 06:56:49;;;;;;;2.40;1.57;;;;;;;7.68;100.00;95594.38;5029520;27;103567;-61
2023/03/26 06:59:47;;;;;;;1.37;1.20;;;;;;;7.84;100.00;95590.00;4992016;27;102749;-62
2023/03/26 07:02:32;;;;;;;1.40;1.20;;;;;;;8.10;100.00;95578.56;5010209;28;102251;-61
2023/03/26 07:05:18;;;;;;;2.03;1.13;;;;;;;8.40;100.00;95579.56;5029713;28;101648;-61
2023/03/26 07:08:03;;;;;;;1.80;1.33;;;;;;;8.49;100.00;95566.66;5028879;28;102073;-61
2023/03/26 07:10:48;;;;;;;1.60;1.20;;;;;;;8.71;100.00;95573.41;5028495;28;102247;-61
2023/03/26 07:13:18;;;;;;;2.33;1.30;;;;;;;8.85;100.00;95565.78;5030144;27;101928;-61
2023/03/26 07:15:50;;;;;;;4.33;1.40;;;;;;;8.91;100.00;95564.72;5032075;27;102193;-61
2023/03/26 07:18:35;;;;;;;4.07;1.30;;;;;;;9.03;100.00;95557.34;5028801;28;101809;-62
2023/03/26 07:21:04;;;;;;;3.33;1.30;;;;;;;9.17;100.00;95548.63;5030594;28;104713;-61
2023/03/26 07:23:33;;;;;;;3.00;1.30;;;;;;;9.02;100.00;95540.66;5012111;28;105264;-62
2023/03/26 07:26:28;;;;;;;3.80;1.40;;;;;;;9.23;100.00;95520.28;5010871;28;101883;-61
2023/03/26 07:29:18;;;;;;;3.53;1.70;;;;;;;9.17;100.00;95516.78;5024019;28;104814;-61
2023/03/26 07:32:25;;;;;;;2.83;1.70;;;;;;;9.39;100.00;95508.63;5000707;28;103574;-61
2023/03/26 07:34:57;;;;;;;4.17;2.43;;;;;;;9.51;100.00;95490.59;5015949;28;101660;-62
2023/03/26 07:37:42;;;;;;;4.33;1.83;;;;;;;9.44;100.00;95482.88;5030323;28;105001;-61
2023/03/26 07:40:46;;;;;;;3.73;1.60;;;;;;;9.51;100.00;95469.34;5031347;28;102313;-61
2023/03/26 07:43:54;;;;;;;4.70;3.00;;;;;;;9.51;100.00;95454.25;5020705;27;102224;-62
2023/03/26 07:46:42;;;;;;;2.57;2.33;;;;;;;9.55;100.00;95441.22;5010116;28;103423;-62
2023/03/26 07:49:34;;;;;;;4.70;3.00;;;;;;;9.63;100.00;95436.19;5010278;28;101929;-61
2023/03/26 07:52:36;;;;;;;2.40;1.83;;;;;;;9.51;100.00;95421.59;4949160;28;102833;-61
2023/03/26 07:55:17;;;;;;;4.10;1.73;;;;;;;9.65;100.00;95401.41;4981802;28;105277;-62
2023/03/26 07:58:16;;;;;;;6.07;2.07;;;;;;;9.41;100.00;95395.88;5000939;28;102208;-61
2023/03/26 08:01:05;;;;;;;3.60;1.50;;;;;;;9.53;100.00;95396.38;5010256;28;104962;-61
2023/03/26 08:03:52;;;;;;;2.90;1.90;;;;;;;9.66;100.00;95377.22;5024340;28;104604;-62
2023/03/26 08:06:53;;;;;;;6.20;3.57;;;;;;;9.77;100.00;95373.50;5025223;27;101991;-61
2023/03/26 08:10:02;;;;;;;5.87;2.20;;;;;;;9.75;100.00;95366.88;5009439;27;102507;-62
2023/03/26 08:12:49;;;;;;;3.37;1.50;;;;;;;9.71;100.00;95376.44;5023532;28;101848;-62
2023/03/26 08:15:27;;;;;;;2.47;1.87;;;;;;;9.78;100.00;95385.72;5005127;28;105675;-61
2023/03/26 08:18:05;;;;;;;3.47;1.70;;;;;;;9.74;100.00;95395.28;5030878;28;103245;-62
2023/03/26 08:20:40;;;;;;;4.27;1.73;;;;;;;9.60;100.00;95399.53;5024686;28;102119;-61
2023/03/26 08:23:17;;;;;;;4.90;1.50;;;;;;;9.79;100.00;95402.44;5030824;28;101871;-61
2023/03/26 08:25:58;;;;;;;4.73;1.60;;;;;;;9.92;100.00;95397.34;5019053;28;104415;-61
2023/03/26 08:28:40;;;;;;;4.60;1.50;;;;;;;10.02;100.00;95391.22;5034974;27;101662;-61
2023/03/26 08:31:09;;;;;;;3.07;1.47;;;;;;;10.01;100.00;95384.31;5026297;27;102621;-62
2023/03/26 08:33:36;;;;;;;3.47;1.60;;;;;;;10.26;100.00;95369.09;5028155;28;102032;-62
2023/03/26 08:36:03;;;;;;;2.90;1.73;;;;;;;10.49;100.00;95355.19;5012911;28;105570;-62
2023/03/26 08:38:31;;;;;;;2.17;1.47;;;;;;;10.54;100.00;95352.50;5010474;28;102602;-62
2023/03/26 08:41:31;;;;;;;1.80;1.30;;;;;;;10.83;100.00;95352.56;5018028;28;102066;-60
2023/03/26 08:44:33;;;;;;;3.83;1.40;;;;;;;10.90;100.00;95334.44;5031041;27;102855;-63
2023/03/26 08:47:33;;;;;;;3.43;1.30;;;;;;;11.03;100.00;95328.50;5012859;27;103223;-63
2023/03/26 08:50:32;;;;;;;2.90;1.83;;;;;;;11.07;100.00;95324.97;5030238;27;102265;-63
2023/03/26 08:53:28;;;;;;;2.80;1.77;;;;;;;11.20;100.00;95319.03;5031706;28;105060;-63
2023/03/26 08:56:12;;;;;;;2.73;1.40;;;;;;;11.04;100.00;95314.91;5015455;28;101843;-63
2023/03/26 08:59:27;;;;;;;3.57;1.70;;;;;;;11.13;100.00;95299.91;5028968;27;104971;-63
2023/03/26 09:02:33;;;;;;;2.23;1.00;;;;;;;11.13;100.00;95288.50;5007552;28;103025;-63
2023/03/26 09:05:37;;;;;;;2.33;1.43;;;;;;;11.08;100.00;95294.66;5026604;27;102002;-63
2023/03/26 09:08:45;;;;;;;4.23;1.10;;;;;;;11.04;100.00;95309.59;5028619;28;105196;-63
2023/03/26 09:11:41;;;;;;;2.93;1.10;;;;;;;11.05;100.00;95302.38;5022623;28;102959;-63
2023/03/26 09:14:36;;;;;;;2.57;0.97;;;;;;;11.20;100.00;95307.59;5010705;28;102357;-63
2023/03/26 09:17:26;;;;;;;2.17;1.30;;;;;;;11.29;100.00;95312.00;5008509;28;104853;-63
2023/03/26 09:20:31;;;;;;;1.37;0.97;;;;;;;11.31;100.00;95312.53;5019083;28;104892;-63
2023/03/26 09:23:26;;;;;;;2.17;1.20;;;;;;;11.45;100.00;95333.97;5027856;28;105267;-63
2023/03/26 09:26:03;;;;;;;2.30;1.40;;;;;;;11.49;100.00;95319.81;5028187;28;105300;-63
2023/03/26 09:29:05;;;;;;;1.90;1.20;;;;;;;11.17;100.00;95330.22;5028963;28;101890;-63
2023/03/26 09:31:50;;;;;;;1.83;1.10;;;;;;;10.97;100.00;95329.59;5003360;28;101972;-63
2023/03/26 09:34:42;;;;;;;3.23;0.93;;;;;;;11.01;100.00;95327.97;5021890;28;105521;-63
2023/03/26 09:37:18;;;;;;;3.27;1.00;;;;;;;11.05;100.00;95326.34;4988838;28;102053;-63
2023/03/26 09:40:05;;;;;;;2.27;1.20;;;;;;;11.24;100.00;95309.41;5003450;28;105626;-63
2023/03/26 09:42:42;;;;;;;2.23;1.20;;;;;;;11.42;100.00;95276.78;5029830;28;102699;-63
2023/03/26 09:45:31;;;;;;;3.10;1.20;;;;;;;11.15;100.00;95262.41;5021251;28;101926;-63
2023/03/26 09:48:26;;;;;;;1.50;0.90;;;;;;;10.93;100.00;95254.91;5009455;28;102812;-63
2023/03/26 09:51:06;;;;;;;4.67;1.37;;;;;;;11.03;100.00;95259.31;5009817;28;102078;-63
2023/03/26 09:54:05;;;;;;;2.87;1.00;;;;;;;11.19;100.00;95264.22;5008334;28;105804;-63
2023/03/26 09:56:46;;;;;;;2.07;1.00;;;;;;;11.37;100.00;95282.16;5009536;28;102868;-63
2023/03/26 09:59:39;;;;;;;4.40;1.17;;;;;;;11.15;100.00;95289.00;5009874;28;102077;-62
2023/03/26 10:02:22;;;;;;;2.80;1.00;;;;;;;10.87;100.00;95292.44;5008573;28;105423;-63
2023/03/26 10:05:05;;;;;;;1.67;1.20;;;;;;;10.85;100.00;95287.41;5009356;28;102526;-63
2023/03/26 10:07:49;;;;;;;2.23;1.10;;;;;;;10.71;100.00;95293.63;5009530;28;102385;-63
2023/03/26 10:10:25;;;;;;;1.63;0.93;;;;;;;10.77;100.00;95305.81;5016827;28;103006;-63
2023/03/26 10:12:59;;;;;;;1.60;1.00;;;;;;;10.72;100.00;95308.50;5014698;28;101790;-63
2023/03/26 10:15:34;;;;;;;3.27;1.70;;;;;;;10.58;100.00;95315.53;5031929;28;104968;-63
2023/03/26 10:18:16;;;;;;;2.90;1.20;;;;;;;10.62;100.00;95314.69;5025421;28;104789;-63
2023/03/26 10:20:57;;;;;;;2.90;1.50;;;;;;;10.69;100.00;95315.16;5012604;28;101767;-62
2023/03/26 10:23:52;;;;;;;1.73;0.90;;;;;;;10.49;100.00;95319.81;5011557;28;105005;-63
2023/03/26 10:26:37;;;;;;;1.57;0.90;;;;;;;10.58;100.00;95312.88;5005930;28;102607;-63
2023/03/26 10:29:22;;;;;;;2.13;1.00;;;;;;;10.81;100.00;95301.53;5014498;28;101843;-63
2023/03/26 10:31:56;;;;;;;1.77;1.07;;;;;;;10.95;100.00;95289.19;5011529;28;104898;-63
2023/03/26 10:34:48;;;;;;;1.63;1.07;;;;;;;11.00;100.00;95281.16;5014022;28;101817;-63
2023/03/26 10:37:21;;;;;;;3.50;1.27;;;;;;;10.93;100.00;95281.50;5015010;28;102450;-63
2023/03/26 10:40:09;;;;;;;3.07;1.07;;;;;;;11.00;100.00;95286.47;5018413;27;102506;-63
2023/03/26 10:42:55;;;;;;;2.93;1.27;;;;;;;11.10;100.00;95281.06;5030953;28;101843;-63
2023/03/26 10:45:41;;;;;;;2.77;1.20;;;;;;;11.16;100.00;95295.91;5031431;28;105101;-63
2023/03/26 10:48:27;;;;;;;1.37;0.90;;;;;;;11.11;100.00;95287.97;5018441;28;105323;-63
2023/03/26 10:51:13;;;;;;;2.10;1.00;;;;;;;11.10;100.00;95295.19;5011025;28;102005;-63
2023/03/26 10:53:46;;;;;;;2.00;1.13;;;;;;;10.89;100.00;95311.56;5012670;28;102817;-63
2023/03/26 10:56:22;;;;;;;1.87;0.90;;;;;;;10.85;100.00;95310.56;5015395;28;102682;-63
2023/03/26 10:58:50;;;;;;;4.77;1.10;;;;;;;10.95;100.00;95310.47;4995168;28;105500;-63
2023/03/26 11:01:28;;;;;;;1.93;1.00;;;;;;;10.81;100.00;95315.63;5010305;28;104303;-63
2023/03/26 11:04:05;;;;;;;1.53;1.20;;;;;;;10.81;100.00;95315.63;5020715;28;102166;-63
2023/03/26 11:06:40;;;;;;;1.63;1.40;;;;;;;10.99;100.00;95293.69;5012641;28;101729;-63
2023/03/26 11:09:21;;;;;;;2.70;1.63;;;;;;;11.11;100.00;95277.31;5010433;28;105172;-63
2023/03/26 11:11:56;;;;;;;5.13;2.33;;;;;;;11.27;100.00;95276.09;5010618;28;101867;-63
2023/03/26 11:14:29;;;;;;;3.93;2.50;;;;;;;11.44;100.00;95260.53;5012677;28;102816;-63
2023/03/26 11:17:03;;;;;;;3.87;2.07;;;;;;;11.49;100.00;95258.59;5011573;28;102809;-63
2023/03/26 11:19:39;;;;;;;3.77;2.67;;;;;;;11.59;100.00;95249.72;5018790;28;102064;-63
2023/03/26 11:22:22;;;;;;;1.70;1.30;;;;;;;11.70;100.00;95254.66;5012560;28;102739;-63
2023/03/26 11:25:05;;;;;;;2.53;1.53;;;;;;;11.58;100.00;95250.78;5030592;28;102079;-63
2023/03/26 11:27:49;;;;;;;3.97;1.47;;;;;;;11.97;100.00;95240.72;5032134;27;102481;-63
2023/03/26 11:30:27;;;;;;;3.37;1.50;;;;;;;11.69;100.00;95246.94;5031281;27;103149;-63
2023/03/26 11:32:59;;;;;;;2.53;1.43;;;;;;;11.91;100.00;95252.53;5031848;27;101880;-63
2023/03/26 11:35:31;;;;;;;2.50;1.57;;;;;;;11.92;100.00;95252.25;5030554;28;105175;-62
2023/03/26 11:38:05;;;;;;;7.57;3.20;;;;;;;11.89;100.00;95239.50;5018547;28;104114;-63
2023/03/26 11:40:36;;;;;;;3.27;1.87;;;;;;;12.02;100.00;95240.66;5011985;28;101893;-63
2023/03/26 11:43:08;;;;;;;4.30;1.90;;;;;;;11.91;100.00;95233.88;5025128;28;105076;-63
2023/03/26 11:45:38;;;;;;;2.87;1.50;;;;;;;11.94;100.00;95238.66;5032319;27;101767;-63
2023/03/26 11:48:10;;;;;;;3.43;1.10;;;;;;;11.81;100.00;95234.81;5029700;28;105081;-63
2023/03/26 11:50:44;;;;;;;1.60;1.20;;;;;;;11.99;100.00;95242.03;5031168;27;102876;-63
2023/03/26 11:53:16;;;;;;;2.90;1.50;;;;;;;11.92;100.00;95238.94;5031462;27;102108;-63
2023/03/26 11:55:48;;;;;;;3.10;1.60;;;;;;;12.22;100.00;95224.41;5030169;28;105401;-63
2023/03/26 11:58:28;;;;;;;4.97;2.10;;;;;;;12.25;100.00;95219.28;5030747;28;102537;-63
2023/03/26 12:00:55;;;;;;;2.83;1.80;;;;;;;12.36;100.00;95212.72;5030178;28;101839;-63
2023/03/26 12:03:23;;;;;;;5.73;4.10;;;;;;;12.56;100.00;95214.28;5010437;28;104822;-63
2023/03/26 12:05:57;;;;;;;3.80;2.20;;;;;;;12.81;100.00;95214.66;5012580;28;105139;-63
2023/03/26 12:08:33;;;;;;;4.43;2.30;;;;;;;12.87;100.00;95204.72;5011640;28;103289;-63
2023/03/26 12:11:08;;;;;;;2.20;1.37;;;;;;;12.50;100.00;95189.59;5022966;28;105235;-63
2023/03/26 12:13:38;;;;;;;4.30;1.83;;;;;;;12.48;100.00;95190.97;4991502;28;101758;-62